• Join FlightAware (Why Join?)
  • Login
  • US Flag 
06:43AM EST


 

Airport Tracker/Info


-or-


 

Live Flight TrackerFlight Track Log ✈ USC105 ✈ 24-Apr-2013 ✈ KLCK - KBKL

Flight Track Log - Related Links

Times and Time Zones

All times are in EDT time to prevent confusion due to time zone crossing. See the USC105 flight status page for this flight to view local times or setup timezone preferences in your user account.

Time Position Orientation Groundspeed Altitude Reporting Facility
EDT Latitude Longitude Course Direction KTS MPH feet Rate Location/Type
10:02PM 39.8061 -82.9367 245° Southwest 116 133 900  Level Indianapolis Center
10:03PM 39.7958 -82.9653 245° Southwest 112 129 2,200 1,140 Climbing Indianapolis Center
10:04PM 39.8222 -82.9556 16° North 124 143 2,900 900 Climbing Indianapolis Center
10:04PM 39.8369 -82.9456 28° Northeast 149 171 3,300 720 Climbing Indianapolis Center
10:05PM 39.8575 -82.9361 19° North 130 150 3,700 540 Climbing Indianapolis Center
10:06PM 39.8947 -82.9106 28° Northeast 140 161 4,200 480 Climbing Indianapolis Center
10:07PM 39.9339 -82.8836 28° Northeast 151 174 4,700 540 Climbing Indianapolis Center
10:08PM 39.9736 -82.8544 29° Northeast 157 181 5,300 600 Climbing Indianapolis Center
10:08PM 39.9858 -82.8483 21° North 159 183 5,500 660 Climbing Indianapolis Center
10:09PM 40.0139 -82.8281 29° Northeast 161 185 6,000 660 Climbing Indianapolis Center
10:09PM 40.0256 -82.8175 35° Northeast 161 185 6,200 540 Climbing Indianapolis Center
10:10PM 40.0511 -82.7986 29° Northeast 157 181 6,600 540 Climbing Indianapolis Center
10:10PM 40.0672 -82.7894 24° Northeast 160 184 6,800 360 Climbing Indianapolis Center
10:11PM 40.0914 -82.7708 31° Northeast 161 185 7,000 120 Climbing Indianapolis Center
10:12PM 40.1336 -82.7356 33° Northeast 177 204 7,000  Level Indianapolis Center
10:13PM 40.1778 -82.7028 30° Northeast 181 208 7,000 -60 Level Indianapolis Center
10:14PM 40.2242 -82.6672 30° Northeast 191 220 6,900 -60 Descending Indianapolis Center
10:15PM 40.2744 -82.6314 29° Northeast 187 215 6,900  Level Indianapolis Center
10:16PM 40.3200 -82.5947 32° Northeast 189 217 7,000  Climbing Indianapolis Center
10:17PM 40.3653 -82.5564 33° Northeast 191 220 7,000  Level Indianapolis Center
10:18PM 40.4131 -82.5239 27° Northeast 192 221 7,000  Level Indianapolis Center
10:19PM 40.4597 -82.4892 30° Northeast 191 220 7,000 -60 Level Indianapolis Center
10:20PM 40.5067 -82.4542 30° Northeast 192 221 6,900 -60 Descending Indianapolis Center
10:21PM 40.5531 -82.4178 31° Northeast 193 222 6,900  Level Indianapolis Center
10:22PM 40.6006 -82.3836 29° Northeast 193 222 7,000  Climbing Indianapolis Center
10:23PM 40.6461 -82.3481 31° Northeast 190 219 7,000 -120 Level Indianapolis Center
10:24PM 40.6622 -82.3375 26° Northeast 192 221 6,900 -120 Descending Cleveland Center
10:25PM 40.7108 -82.3006 30° Northeast 193 222 6,900  Level Cleveland Center
10:26PM 40.7614 -82.2636 29° Northeast 193 222 7,000  Climbing Cleveland Center
10:27PM 40.8097 -82.2319 26° Northeast 192 221 6,900 -60 Descending Cleveland Center
10:28PM 40.8522 -82.1917 36° Northeast 193 222 6,900  Level Cleveland Center
10:29PM 40.9006 -82.1572 28° Northeast 192 221 6,900  Level Cleveland Center
10:29PM 40.9447 -82.1253 29° Northeast 195 224 7,000  Climbing Cleveland Center
10:31PM 40.9911 -82.0878 31° Northeast 194 223 7,000 -60 Level Cleveland Center
10:32PM 41.0375 -82.0558 27° Northeast 193 222 6,900 -60 Descending Cleveland Center
10:33PM 41.0817 -82.0183 33° Northeast 193 222 6,900 -60 Level Cleveland Center
10:34PM 41.1300 -81.9808 30° Northeast 194 223 6,800 -420 Descending Cleveland Center
10:35PM 41.1806 -81.9433 29° Northeast 212 244 6,100 -540 Descending Cleveland Center
10:36PM 41.2186 -81.8889 47° Northeast 206 237 5,800 -600 Descending Cleveland Center
10:37PM 41.2633 -81.8261 47° Northeast 213 245 4,900 -720 Descending Cleveland Center
10:38PM 41.3075 -81.7772 40° Northeast 211 243 4,400 -600 Descending Cleveland Center
10:39PM 41.3456 -81.7228 47° Northeast 221 254 3,700 -660 Descending Cleveland Center
10:40PM 41.3753 -81.6567 59° Northeast 215 247 3,100 -420 Descending Cleveland Center
10:41PM 41.4133 -81.6131 41° Northeast 179 206 2,900 -300 Descending Cleveland Center
10:42PM 41.4550 -81.6192 354° North 155 178 2,500 -540 Descending Cleveland Center
10:43PM 41.5050 -81.6283 352° North 169 194 1,900 -660 Descending Cleveland Center
10:44PM 41.5319 -81.6511 328° Northwest 117 135 1,200 -720 Descending Cleveland Center